createdAt,value
2019-02-23T00:04:30.007Z,11.70
2019-02-23T00:11:27.415Z,10.63
2019-02-23T00:18:24.186Z,10.00
2019-02-23T00:25:21.334Z,8.47
2019-02-23T00:32:18.663Z,9.53
2019-02-23T00:39:03.991Z,9.30
2019-02-23T00:46:09.826Z,8.87
2019-02-23T00:53:06.898Z,7.40
2019-02-23T01:00:03.545Z,7.20
2019-02-23T01:07:01.634Z,7.33
2019-02-23T01:13:58.687Z,6.50
2019-02-23T01:20:55.603Z,7.63
2019-02-23T01:27:52.901Z,8.17
2019-02-23T01:34:48.647Z,8.67
2019-02-23T01:41:53.172Z,9.27
2019-02-23T01:48:50.483Z,8.43
2019-02-23T01:55:47.867Z,9.63
2019-02-23T02:02:44.903Z,8.68
2019-02-23T02:09:42.459Z,9.10
2019-02-23T02:16:39.951Z,8.90
2019-02-23T02:23:36.717Z,7.70
2019-02-23T02:30:33.956Z,8.63
2019-02-23T02:37:31.698Z,9.50
2019-02-23T02:44:29.241Z,8.13
2019-02-23T02:51:26.854Z,9.17
2019-02-23T02:58:24.019Z,8.87
2019-02-23T03:05:21.092Z,9.57
2019-02-23T03:12:17.820Z,9.13
2019-02-23T03:19:15.669Z,9.55
2019-02-23T03:26:12.839Z,9.00
2019-02-23T03:33:10.947Z,10.03
2019-02-23T03:40:08.641Z,10.30
2019-02-23T03:47:05.449Z,10.37
2019-02-23T03:54:02.378Z,11.20
2019-02-23T04:00:59.911Z,11.23
2019-02-23T04:07:57.051Z,11.00
2019-02-23T04:14:53.704Z,10.57
2019-02-23T04:21:50.888Z,12.07
2019-02-23T04:28:47.920Z,11.50
2019-02-23T04:35:46.592Z,12.37
2019-02-23T04:42:44.313Z,12.13
2019-02-23T04:49:41.324Z,11.90
2019-02-23T04:56:38.351Z,13.33
2019-02-23T05:03:35.785Z,11.93
2019-02-23T05:10:33.204Z,12.80
2019-02-23T05:17:30.809Z,12.50
2019-02-23T05:24:27.516Z,13.27
2019-02-23T05:31:25.003Z,14.70
2019-02-23T05:38:22.436Z,13.13
2019-02-23T05:45:19.331Z,13.80
2019-02-23T05:52:16.844Z,14.30
2019-02-23T05:59:14.053Z,12.73
2019-02-23T06:06:11.372Z,12.80
2019-02-23T06:13:08.340Z,13.37
2019-02-23T06:20:06.183Z,13.13
2019-02-23T06:27:03.668Z,14.33
2019-02-23T06:34:01.537Z,13.17
2019-02-23T06:40:58.472Z,14.33
2019-02-23T06:47:55.826Z,14.33
2019-02-23T06:54:53.392Z,14.33
2019-02-23T07:01:50.043Z,14.33
2019-02-23T07:08:50.519Z,13.17
2019-02-23T07:15:47.258Z,14.70
2019-02-23T07:22:44.661Z,13.33
2019-02-23T07:29:41.816Z,13.37
2019-02-23T07:36:39.504Z,13.50
2019-02-23T07:43:37.500Z,11.00
2019-02-23T07:50:34.906Z,12.27
2019-02-23T07:57:31.984Z,10.80
2019-02-23T08:04:29.403Z,12.03
2019-02-23T08:11:26.183Z,12.43
2019-02-23T08:18:23.410Z,11.73
2019-02-23T08:25:20.899Z,11.85
2019-02-23T08:32:17.963Z,10.70
2019-02-23T08:39:14.631Z,11.07
2019-02-23T08:46:12.232Z,11.43
2019-02-23T08:53:09.716Z,11.95
2019-02-23T09:00:06.794Z,11.03
2019-02-23T09:07:05.456Z,12.15
2019-02-23T09:14:02.604Z,10.67
2019-02-23T09:20:59.388Z,11.40
2019-02-23T09:27:56.758Z,11.35
2019-02-23T09:34:54.388Z,10.90
2019-02-23T09:41:51.347Z,10.43
2019-02-23T09:48:48.467Z,10.25
2019-02-23T09:55:45.963Z,8.63
2019-02-23T10:02:42.931Z,10.13
2019-02-23T10:09:39.890Z,9.00
2019-02-23T10:16:36.664Z,8.93
2019-02-23T10:23:34.165Z,8.73
2019-02-23T10:30:31.879Z,8.53
2019-02-23T10:37:29.351Z,7.90
2019-02-23T10:44:26.015Z,6.73
2019-02-23T10:51:22.659Z,6.92
2019-02-23T10:58:20.228Z,6.77
2019-02-23T11:05:18.421Z,6.20
2019-02-23T11:12:15.819Z,5.93
2019-02-23T11:19:12.792Z,5.57
2019-02-23T11:26:09.942Z,5.50
2019-02-23T11:32:54.806Z,5.37
2019-02-23T11:39:39.829Z,5.93
2019-02-23T11:46:37.905Z,5.80
2019-02-23T11:53:35.241Z,4.70
2019-02-23T12:00:32.015Z,5.03
2019-02-23T12:07:29.288Z,4.27
2019-02-23T12:14:26.383Z,3.80
2019-02-23T12:21:23.820Z,4.47
2019-02-23T12:28:21.255Z,4.00
2019-02-23T12:35:18.433Z,4.00
2019-02-23T12:42:15.443Z,3.87
2019-02-23T12:49:13.006Z,3.13
2019-02-23T12:56:10.239Z,3.63
2019-02-23T13:03:06.916Z,3.10
2019-02-23T13:10:04.006Z,3.40
2019-02-23T13:17:01.316Z,2.72
2019-02-23T13:23:58.808Z,3.10
2019-02-23T13:30:56.322Z,2.70
2019-02-23T13:37:53.206Z,3.47
2019-02-23T13:44:50.399Z,2.80
2019-02-23T13:51:48.662Z,3.53
2019-02-23T13:58:47.688Z,3.87
2019-02-23T14:05:44.303Z,3.00
2019-02-23T14:12:34.895Z,2.77
2019-02-23T14:19:34.783Z,3.37
2019-02-23T14:26:34.332Z,3.40
2019-02-23T14:33:54.015Z,3.03
2019-02-23T14:41:17.569Z,2.60
2019-02-23T14:48:14.481Z,2.87
2019-02-23T14:55:12.222Z,3.13
2019-02-23T15:02:08.999Z,2.63
2019-02-23T15:09:05.736Z,2.52
2019-02-23T15:16:04.536Z,2.97
2019-02-23T15:23:01.463Z,2.60
2019-02-23T15:29:58.967Z,2.60
2019-02-23T15:37:00.690Z,2.30
2019-02-23T15:43:54.705Z,3.00
2019-02-23T15:50:52.155Z,3.00
2019-02-23T15:57:49.770Z,3.30
2019-02-23T16:04:47.197Z,3.13
2019-02-23T16:11:32.501Z,3.30
2019-02-23T16:18:17.603Z,3.53
2019-02-23T16:25:15.231Z,4.13
2019-02-23T16:32:13.738Z,3.67
2019-02-23T16:39:11.298Z,3.13
2019-02-23T16:46:09.770Z,3.80
2019-02-23T16:52:56.102Z,3.87
2019-02-23T16:59:44.491Z,3.30
2019-02-23T17:06:41.212Z,4.27
2019-02-23T17:13:37.897Z,3.73
2019-02-23T17:20:35.315Z,3.63
2019-02-23T17:27:36.258Z,3.13
2019-02-23T17:34:32.015Z,3.20
2019-02-23T17:41:28.707Z,3.20
2019-02-23T17:48:26.207Z,2.67
2019-02-23T17:55:23.329Z,3.40
2019-02-23T18:02:20.760Z,3.10
2019-02-23T18:09:17.468Z,2.97
2019-02-23T18:16:14.239Z,3.17
2019-02-23T18:23:11.707Z,2.90
2019-02-23T18:30:14.080Z,2.37
2019-02-23T18:37:10.727Z,2.43
2019-02-23T18:44:07.499Z,2.10
2019-02-23T18:51:06.201Z,2.47
2019-02-23T18:58:03.537Z,2.43
2019-02-23T19:04:48.479Z,2.50
2019-02-23T19:11:33.387Z,2.97
2019-02-23T19:18:30.371Z,2.77
2019-02-23T19:25:27.403Z,2.45
2019-02-23T19:32:25.135Z,3.17
2019-02-23T19:39:22.363Z,3.33
2019-02-23T19:46:19.715Z,3.23
2019-02-23T19:53:17.315Z,3.63
2019-02-23T20:00:15.792Z,3.13
2019-02-23T20:07:13.259Z,2.87
2019-02-23T20:13:58.183Z,3.40
2019-02-23T20:20:43.051Z,2.93
2019-02-23T20:27:28.030Z,4.20
2019-02-23T20:34:33.292Z,3.57
2019-02-23T20:41:30.421Z,6.10
2019-02-23T20:48:16.352Z,2.97
2019-02-23T20:55:01.461Z,3.37
2019-02-23T21:02:00.107Z,2.77
2019-02-23T21:08:57.555Z,2.77
2019-02-23T21:15:54.531Z,2.40
2019-02-23T21:22:52.033Z,2.43
2019-02-23T21:29:50.480Z,2.10
2019-02-23T21:36:48.041Z,2.00
2019-02-23T21:43:32.997Z,2.10
2019-02-23T21:50:18.076Z,2.20
2019-02-23T21:57:03.071Z,1.97
2019-02-23T22:03:48.031Z,1.98
2019-02-23T22:10:45.519Z,1.90
2019-02-23T22:17:42.512Z,1.80
2019-02-23T22:24:39.103Z,1.77
2019-02-23T22:31:36.253Z,2.13
2019-02-23T22:38:21.297Z,1.77
2019-02-23T22:45:41.711Z,1.57
2019-02-23T22:52:30.647Z,1.87
2019-02-23T22:59:15.881Z,1.90
2019-02-23T23:06:01.896Z,1.73
2019-02-23T23:12:46.795Z,2.00
2019-02-23T23:19:33.564Z,1.90
2019-02-23T23:26:18.987Z,1.97
2019-02-23T23:33:05.374Z,1.60
2019-02-23T23:40:03.428Z,1.90
2019-02-23T23:46:49.687Z,1.70
2019-02-23T23:53:49.616Z,1.70
